createdAt,value
2018-08-04T00:00:42.378Z,20.33
2018-08-04T00:03:46.662Z,20.30
2018-08-04T00:06:51.676Z,20.20
2018-08-04T00:09:56.009Z,20.16
2018-08-04T00:13:00.280Z,20.12
2018-08-04T00:16:04.575Z,19.79
2018-08-04T00:19:09.489Z,19.82
2018-08-04T00:22:13.735Z,19.81
2018-08-04T00:25:18.032Z,19.86
2018-08-04T00:28:22.387Z,19.87
2018-08-04T00:31:26.679Z,19.85
2018-08-04T00:34:31.449Z,19.70
2018-08-04T00:37:35.862Z,19.73
2018-08-04T00:40:40.839Z,19.73
2018-08-04T00:43:46.110Z,19.68
2018-08-04T00:46:50.429Z,19.70
2018-08-04T00:49:54.686Z,19.78
2018-08-04T00:52:59.030Z,19.69
2018-08-04T00:56:03.504Z,19.70
2018-08-04T00:59:08.402Z,19.68
2018-08-04T01:02:12.482Z,19.69
2018-08-04T01:05:17.490Z,19.70
2018-08-04T01:08:21.846Z,19.75
2018-08-04T01:11:26.290Z,19.64
2018-08-04T01:14:30.572Z,19.57
2018-08-04T01:17:34.880Z,19.57
2018-08-04T01:20:39.173Z,19.48
2018-08-04T01:23:43.799Z,19.46
2018-08-04T01:26:48.110Z,19.39
2018-08-04T01:29:52.426Z,19.37
2018-08-04T01:32:56.697Z,19.36
2018-08-04T01:36:00.952Z,19.32
2018-08-04T01:39:07.513Z,19.31
2018-08-04T01:42:12.487Z,19.30
2018-08-04T01:45:16.840Z,19.26
2018-08-04T01:48:21.134Z,19.26
2018-08-04T01:51:26.636Z,19.24
2018-08-04T01:54:31.026Z,19.19
2018-08-04T01:57:35.413Z,19.23
2018-08-04T02:00:39.775Z,19.18
2018-08-04T02:03:43.852Z,19.10
2018-08-04T02:06:48.121Z,19.03
2018-08-04T02:09:52.550Z,19.03
2018-08-04T02:12:56.821Z,18.95
2018-08-04T02:16:01.157Z,18.94
2018-08-04T02:19:05.186Z,18.86
2018-08-04T02:22:09.470Z,18.95
2018-08-04T02:25:13.733Z,18.89
2018-08-04T02:28:18.021Z,18.87
2018-08-04T02:31:22.279Z,18.84
2018-08-04T02:34:26.559Z,18.87
2018-08-04T02:37:30.832Z,18.79
2018-08-04T02:40:35.101Z,18.76
2018-08-04T02:43:39.386Z,18.81
2018-08-04T02:46:43.640Z,18.78
2018-08-04T02:49:47.955Z,18.73
2018-08-04T02:52:52.229Z,18.74
2018-08-04T02:55:56.511Z,18.69
2018-08-04T02:59:00.862Z,18.71
2018-08-04T03:02:04.896Z,18.66
2018-08-04T03:05:09.693Z,18.70
2018-08-04T03:08:13.996Z,18.68
2018-08-04T03:11:18.264Z,18.61
2018-08-04T03:14:23.167Z,18.58
2018-08-04T03:17:27.456Z,18.49
2018-08-04T03:20:31.717Z,18.53
2018-08-04T03:23:35.809Z,18.59
2018-08-04T03:26:41.019Z,18.44
2018-08-04T03:29:45.338Z,18.32
2018-08-04T03:32:49.706Z,18.37
2018-08-04T03:35:54.126Z,18.49
2018-08-04T03:38:58.461Z,18.45
2018-08-04T03:42:02.890Z,18.39
2018-08-04T03:45:07.189Z,18.37
2018-08-04T03:48:11.542Z,18.34
2018-08-04T03:51:15.842Z,18.38
2018-08-04T03:54:20.613Z,18.38
2018-08-04T03:57:24.923Z,18.41
2018-08-04T04:00:29.204Z,18.40
2018-08-04T04:03:33.576Z,18.42
2018-08-04T04:06:38.734Z,18.42
2018-08-04T04:09:43.149Z,18.41
2018-08-04T04:12:47.652Z,18.40
2018-08-04T04:15:51.713Z,18.44
2018-08-04T04:18:56.033Z,18.46
2018-08-04T04:22:00.402Z,18.44
2018-08-04T04:25:05.247Z,18.46
2018-08-04T04:28:09.799Z,18.46
2018-08-04T04:31:14.363Z,18.47
2018-08-04T04:34:18.837Z,18.63
2018-08-04T04:37:24.240Z,18.62
2018-08-04T04:40:28.573Z,18.59
2018-08-04T04:43:32.906Z,18.63
2018-08-04T04:46:38.080Z,18.78
2018-08-04T04:49:43.381Z,18.77
2018-08-04T04:52:47.654Z,18.97
2018-08-04T04:55:52.034Z,19.06
2018-08-04T04:58:57.249Z,19.09
2018-08-04T05:02:01.651Z,19.26
2018-08-04T05:05:08.068Z,19.36
2018-08-04T05:08:12.304Z,19.48
2018-08-04T05:11:16.591Z,19.62
2018-08-04T05:14:20.976Z,19.66
2018-08-04T05:17:25.334Z,19.71
2018-08-04T05:20:29.761Z,20.00
2018-08-04T05:23:34.108Z,20.09
2018-08-04T05:26:38.452Z,20.27
2018-08-04T05:29:42.758Z,20.42
2018-08-04T05:32:47.066Z,20.42
2018-08-04T05:35:51.402Z,20.49
2018-08-04T05:38:55.712Z,20.58
2018-08-04T05:42:00.018Z,20.64
2018-08-04T05:45:04.815Z,20.74
2018-08-04T05:48:09.355Z,20.81
2018-08-04T05:51:13.813Z,21.05
2018-08-04T05:54:18.481Z,21.21
2018-08-04T05:57:23.097Z,21.52
2018-08-04T06:00:27.606Z,21.93
2018-08-04T06:03:31.886Z,22.29
2018-08-04T06:06:36.668Z,23.21
2018-08-04T06:09:41.288Z,24.54
2018-08-04T06:12:46.928Z,25.49
2018-08-04T06:15:51.569Z,26.42
2018-08-04T06:18:56.380Z,27.42
2018-08-04T06:22:00.780Z,27.86
2018-08-04T06:25:05.571Z,27.63
2018-08-04T06:28:09.966Z,26.28
2018-08-04T06:31:14.306Z,26.95
2018-08-04T06:34:18.772Z,26.84
2018-08-04T06:37:23.399Z,28.41
2018-08-04T06:40:28.949Z,28.80
2018-08-04T06:43:33.357Z,28.68
2018-08-04T06:46:37.652Z,28.92
2018-08-04T06:49:42.069Z,29.19
2018-08-04T06:52:46.466Z,28.31
2018-08-04T06:55:50.793Z,29.55
2018-08-04T06:58:55.201Z,29.40
2018-08-04T07:01:59.700Z,29.39
2018-08-04T07:05:04.106Z,29.77
2018-08-04T07:08:08.551Z,28.86
2018-08-04T07:11:13.449Z,27.23
2018-08-04T07:14:17.849Z,28.67
2018-08-04T07:17:22.242Z,29.28
2018-08-04T07:20:26.938Z,29.00
2018-08-04T07:23:31.480Z,29.43
2018-08-04T07:26:36.073Z,27.12
2018-08-04T07:29:40.971Z,26.84
2018-08-04T07:32:47.764Z,26.95
2018-08-04T07:35:52.213Z,28.08
2018-08-04T07:38:56.732Z,28.59
2018-08-04T07:42:01.096Z,29.09
2018-08-04T07:45:05.756Z,29.67
2018-08-04T07:48:10.342Z,28.87
2018-08-04T07:51:14.805Z,27.59
2018-08-04T07:54:19.109Z,28.64
2018-08-04T07:57:23.828Z,28.79
2018-08-04T08:00:28.536Z,29.59
2018-08-04T08:03:32.986Z,29.49
2018-08-04T08:06:37.298Z,29.64
2018-08-04T08:09:41.718Z,30.01
2018-08-04T08:12:47.014Z,30.02
2018-08-04T08:15:51.984Z,29.80
2018-08-04T08:18:56.432Z,30.51
2018-08-04T08:22:01.944Z,30.46
2018-08-04T08:25:07.015Z,28.69
2018-08-04T08:28:11.614Z,29.17
2018-08-04T08:31:16.121Z,29.67
2018-08-04T08:34:20.733Z,29.45
2018-08-04T08:37:25.210Z,29.02
2018-08-04T08:40:30.476Z,28.92
2018-08-04T08:43:34.906Z,28.63
2018-08-04T08:46:40.375Z,28.97
2018-08-04T08:49:46.232Z,29.71
2018-08-04T08:52:52.678Z,30.04
2018-08-04T08:55:58.547Z,30.15
2018-08-04T08:59:04.202Z,29.18
2018-08-04T09:02:10.196Z,30.29
2018-08-04T09:05:15.964Z,30.82
2018-08-04T09:08:21.759Z,30.78
2018-08-04T09:11:29.023Z,29.98
2018-08-04T09:14:35.499Z,30.64
2018-08-04T09:17:40.975Z,30.97
2018-08-04T09:20:47.084Z,30.64
2018-08-04T09:23:52.616Z,31.15
2018-08-04T09:26:58.982Z,30.98
2018-08-04T09:30:04.552Z,31.30
2018-08-04T09:33:10.148Z,31.39
2018-08-04T09:36:16.078Z,30.04
2018-08-04T09:39:21.823Z,30.32
2018-08-04T09:42:27.206Z,30.27
2018-08-04T09:45:32.758Z,30.23
2018-08-04T09:48:38.614Z,29.92
2018-08-04T09:51:44.172Z,29.94
2018-08-04T09:54:49.688Z,29.98
2018-08-04T09:57:54.199Z,30.22
2018-08-04T10:01:03.927Z,30.49
2018-08-04T10:04:08.752Z,31.00
2018-08-04T10:07:14.260Z,30.88
2018-08-04T10:10:18.720Z,30.63
2018-08-04T10:13:22.898Z,30.56
2018-08-04T10:16:27.342Z,30.73
2018-08-04T10:19:31.904Z,30.86
2018-08-04T10:22:36.417Z,30.64
2018-08-04T10:25:41.513Z,30.84
2018-08-04T10:28:45.858Z,31.01
2018-08-04T10:31:49.984Z,31.23
2018-08-04T10:34:54.922Z,31.45
2018-08-04T10:37:59.421Z,30.78
2018-08-04T10:41:03.727Z,30.75
2018-08-04T10:44:08.858Z,30.85
2018-08-04T10:47:13.277Z,30.83
2018-08-04T10:50:17.821Z,31.11
2018-08-04T10:53:22.187Z,30.76
2018-08-04T10:56:26.504Z,30.82
2018-08-04T10:59:31.465Z,30.43
2018-08-04T11:02:35.786Z,30.58
2018-08-04T11:05:40.456Z,30.85
2018-08-04T11:08:44.944Z,30.82
2018-08-04T11:11:49.379Z,31.13
2018-08-04T11:14:53.689Z,31.09
2018-08-04T11:17:58.054Z,30.90
2018-08-04T11:21:02.726Z,30.73
2018-08-04T11:24:07.374Z,30.79
2018-08-04T11:27:11.758Z,30.83
2018-08-04T11:30:16.417Z,30.93
2018-08-04T11:33:21.411Z,30.91
2018-08-04T11:36:25.902Z,31.08
2018-08-04T11:39:30.311Z,31.08
2018-08-04T11:42:34.634Z,31.25
2018-08-04T11:45:39.318Z,30.90
2018-08-04T11:48:44.038Z,31.28
2018-08-04T11:51:48.421Z,31.13
2018-08-04T11:54:53.402Z,31.19
2018-08-04T11:57:57.540Z,31.28
2018-08-04T12:01:02.168Z,31.20
2018-08-04T12:04:06.782Z,30.95
2018-08-04T12:07:11.691Z,31.11
2018-08-04T12:10:16.176Z,31.01
2018-08-04T12:13:20.491Z,31.03
2018-08-04T12:16:25.133Z,31.17
2018-08-04T12:19:29.545Z,31.11
2018-08-04T12:22:33.651Z,31.30
2018-08-04T12:25:37.974Z,31.41
2018-08-04T12:28:42.409Z,31.47
2018-08-04T12:31:46.693Z,31.14
2018-08-04T12:34:51.918Z,31.30
2018-08-04T12:37:56.633Z,31.20
2018-08-04T12:41:01.318Z,31.49
2018-08-04T12:44:07.482Z,31.22
2018-08-04T12:47:11.904Z,31.29
2018-08-04T12:50:16.248Z,31.32
2018-08-04T12:53:20.935Z,31.27
2018-08-04T12:56:25.286Z,31.22
2018-08-04T12:59:29.970Z,31.46
2018-08-04T13:02:34.319Z,31.30
2018-08-04T13:05:38.763Z,31.34
2018-08-04T13:08:43.158Z,31.70
2018-08-04T13:11:47.605Z,31.67
2018-08-04T13:14:52.012Z,31.63
2018-08-04T13:17:56.458Z,31.80
2018-08-04T13:21:00.871Z,31.80
2018-08-04T13:24:05.457Z,31.83
2018-08-04T13:27:10.081Z,31.93
2018-08-04T13:30:14.808Z,31.56
2018-08-04T13:33:19.660Z,31.58
2018-08-04T13:36:24.293Z,31.51
2018-08-04T13:39:28.646Z,31.73
2018-08-04T13:42:33.604Z,31.74
2018-08-04T13:45:37.970Z,31.69
2018-08-04T13:48:42.909Z,31.51
2018-08-04T13:51:47.498Z,31.57
2018-08-04T13:54:52.057Z,31.60
2018-08-04T13:57:56.426Z,31.30
2018-08-04T14:01:00.803Z,31.32
2018-08-04T14:04:05.531Z,31.68
2018-08-04T14:07:09.922Z,31.42
2018-08-04T14:10:14.297Z,31.56
2018-08-04T14:13:18.586Z,31.56
2018-08-04T14:16:22.956Z,31.56
2018-08-04T14:19:27.719Z,31.74
2018-08-04T14:22:32.214Z,31.79
2018-08-04T14:25:36.569Z,31.97
2018-08-04T14:28:41.614Z,32.02
2018-08-04T14:31:45.926Z,31.94
2018-08-04T14:34:50.328Z,31.99
2018-08-04T14:37:54.867Z,31.95
2018-08-04T14:40:59.361Z,31.86
2018-08-04T14:44:03.770Z,31.88
2018-08-04T14:47:08.219Z,31.92
2018-08-04T14:50:12.523Z,31.95
2018-08-04T14:53:16.902Z,32.36
2018-08-04T14:56:21.200Z,32.19
2018-08-04T14:59:25.924Z,32.31
2018-08-04T15:02:30.195Z,32.45
2018-08-04T15:05:34.453Z,32.35
2018-08-04T15:08:38.891Z,32.43
2018-08-04T15:11:43.311Z,32.33
2018-08-04T15:14:48.206Z,32.46
2018-08-04T15:17:52.765Z,32.61
2018-08-04T15:20:57.118Z,32.52
2018-08-04T15:24:01.766Z,32.63
2018-08-04T15:27:06.249Z,32.84
2018-08-04T15:30:10.604Z,32.54
2018-08-04T15:33:14.960Z,32.86
2018-08-04T15:36:21.454Z,32.55
2018-08-04T15:39:25.709Z,32.38
2018-08-04T15:42:30.047Z,32.19
2018-08-04T15:45:34.678Z,32.02
2018-08-04T15:48:39.088Z,31.81
2018-08-04T15:51:43.490Z,31.56
2018-08-04T15:54:47.957Z,31.75
2018-08-04T15:57:53.488Z,31.91
2018-08-04T16:00:58.025Z,31.85
2018-08-04T16:04:03.113Z,31.76
2018-08-04T16:07:08.302Z,31.73
2018-08-04T16:10:12.589Z,31.80
2018-08-04T16:13:16.999Z,31.94
2018-08-04T16:16:21.431Z,31.99
2018-08-04T16:19:25.812Z,31.71
2018-08-04T16:22:30.481Z,31.57
2018-08-04T16:25:35.090Z,31.51
2018-08-04T16:28:39.572Z,31.26
2018-08-04T16:31:44.392Z,31.35
2018-08-04T16:34:48.842Z,31.50
2018-08-04T16:37:53.289Z,31.25
2018-08-04T16:40:57.922Z,31.51
2018-08-04T16:44:02.517Z,31.35
2018-08-04T16:47:07.270Z,31.38
2018-08-04T16:50:11.878Z,31.46
2018-08-04T16:53:16.978Z,31.63
2018-08-04T16:56:21.550Z,31.84
2018-08-04T16:59:27.267Z,32.43
2018-08-04T17:02:31.579Z,32.73
2018-08-04T17:05:36.486Z,31.99
2018-08-04T17:08:41.074Z,31.70
2018-08-04T17:11:46.248Z,31.17
2018-08-04T17:14:50.591Z,31.25
2018-08-04T17:17:55.130Z,31.37
2018-08-04T17:20:59.807Z,30.89
2018-08-04T17:24:04.257Z,30.53
2018-08-04T17:27:08.706Z,30.06
2018-08-04T17:30:14.300Z,29.93
2018-08-04T17:33:18.700Z,29.75
2018-08-04T17:36:23.022Z,29.47
2018-08-04T17:39:27.531Z,29.37
2018-08-04T17:42:31.934Z,29.28
2018-08-04T17:45:36.848Z,29.23
2018-08-04T17:48:41.211Z,29.30
2018-08-04T17:51:45.864Z,29.20
2018-08-04T17:54:50.625Z,29.15
2018-08-04T17:57:55.915Z,28.94
2018-08-04T18:01:00.378Z,28.74
2018-08-04T18:04:05.272Z,28.55
2018-08-04T18:07:10.548Z,28.46
2018-08-04T18:10:16.423Z,28.24
2018-08-04T18:13:21.765Z,28.13
2018-08-04T18:16:26.415Z,28.01
2018-08-04T18:19:30.752Z,27.87
2018-08-04T18:22:35.460Z,27.86
2018-08-04T18:25:40.441Z,27.77
2018-08-04T18:28:45.135Z,27.60
2018-08-04T18:31:49.467Z,27.54
2018-08-04T18:34:53.823Z,27.38
2018-08-04T18:37:58.272Z,27.33
2018-08-04T18:41:02.552Z,27.22
2018-08-04T18:44:07.011Z,27.14
2018-08-04T18:47:11.782Z,27.02
2018-08-04T18:50:16.337Z,26.92
2018-08-04T18:53:20.656Z,26.74
2018-08-04T18:56:25.174Z,26.60
2018-08-04T18:59:30.611Z,26.50
2018-08-04T19:02:35.131Z,26.39
2018-08-04T19:05:39.491Z,26.35
2018-08-04T19:08:44.173Z,26.27
2018-08-04T19:11:49.889Z,26.20
2018-08-04T19:14:54.329Z,26.12
2018-08-04T19:17:58.790Z,26.03
2018-08-04T19:21:03.602Z,25.96
2018-08-04T19:24:08.070Z,25.89
2018-08-04T19:27:17.070Z,25.80
2018-08-04T19:30:21.645Z,25.69
2018-08-04T19:33:25.965Z,25.55
2018-08-04T19:36:30.325Z,25.45
2018-08-04T19:39:35.705Z,25.37
2018-08-04T19:42:40.257Z,25.33
2018-08-04T19:45:44.913Z,25.23
2018-08-04T19:48:49.175Z,25.10
2018-08-04T19:51:53.409Z,25.04
2018-08-04T19:54:57.729Z,24.99
2018-08-04T19:58:02.361Z,24.88
2018-08-04T20:01:06.838Z,24.85
2018-08-04T20:04:11.190Z,24.85
2018-08-04T20:07:15.563Z,24.83
2018-08-04T20:10:21.213Z,24.76
2018-08-04T20:13:25.618Z,24.64
2018-08-04T20:16:31.209Z,24.59
2018-08-04T20:19:36.119Z,24.50
2018-08-04T20:22:41.039Z,24.40
2018-08-04T20:25:45.426Z,24.41
2018-08-04T20:28:50.327Z,24.32
2018-08-04T20:31:54.898Z,24.20
2018-08-04T20:34:59.995Z,24.15
2018-08-04T20:38:05.038Z,24.18
2018-08-04T20:41:09.469Z,24.07
2018-08-04T20:44:16.220Z,24.04
2018-08-04T20:47:21.462Z,23.99
2018-08-04T20:50:26.713Z,23.92
2018-08-04T20:53:31.936Z,23.84
2018-08-04T20:56:37.350Z,23.70
2018-08-04T20:59:42.392Z,23.61
2018-08-04T21:02:50.579Z,23.49
2018-08-04T21:05:55.993Z,23.05
2018-08-04T21:09:02.211Z,23.00
2018-08-04T21:12:08.845Z,23.05
2018-08-04T21:15:14.161Z,23.04
2018-08-04T21:18:21.467Z,23.02
2018-08-04T21:21:26.956Z,22.98
2018-08-04T21:24:32.288Z,22.89
2018-08-04T21:27:37.350Z,22.89
2018-08-04T21:30:42.564Z,22.89
2018-08-04T21:33:48.629Z,22.84
2018-08-04T21:36:53.283Z,22.79
2018-08-04T21:39:58.274Z,22.74
2018-08-04T21:43:05.227Z,22.67
2018-08-04T21:46:11.156Z,22.61
2018-08-04T21:49:16.884Z,22.49
2018-08-04T21:52:22.055Z,22.51
2018-08-04T21:55:27.026Z,22.52
2018-08-04T21:58:32.046Z,22.46
2018-08-04T22:01:37.530Z,22.48
2018-08-04T22:04:42.691Z,22.44
2018-08-04T22:08:04.399Z,22.42
2018-08-04T22:11:09.811Z,22.41
2018-08-04T22:14:16.552Z,22.37
2018-08-04T22:17:21.668Z,22.30
2018-08-04T22:20:26.824Z,22.29
2018-08-04T22:23:32.084Z,22.32
2018-08-04T22:26:36.621Z,22.29
2018-08-04T22:29:41.052Z,22.17
2018-08-04T22:32:46.005Z,22.09
2018-08-04T22:35:50.448Z,22.04
2018-08-04T22:38:55.191Z,22.04
2018-08-04T22:41:59.511Z,22.07
2018-08-04T22:46:23.006Z,22.03
2018-08-04T22:49:27.377Z,21.95
2018-08-04T22:52:32.686Z,21.94
2018-08-04T22:55:38.273Z,21.91
2018-08-04T22:58:44.058Z,21.73
2018-08-04T23:01:48.716Z,21.84
2018-08-04T23:04:54.167Z,21.90
2018-08-04T23:07:59.034Z,21.85
2018-08-04T23:11:03.689Z,21.83
2018-08-04T23:14:08.400Z,21.80
2018-08-04T23:17:12.872Z,21.78
2018-08-04T23:20:18.045Z,21.77
2018-08-04T23:23:22.304Z,21.66
2018-08-04T23:26:26.674Z,21.65
2018-08-04T23:29:31.052Z,21.61
2018-08-04T23:32:35.654Z,21.56
2018-08-04T23:35:39.908Z,21.52
2018-08-04T23:38:44.182Z,21.49
2018-08-04T23:41:48.439Z,21.42
2018-08-04T23:44:53.171Z,21.42
2018-08-04T23:47:57.415Z,21.40
2018-08-04T23:51:01.834Z,21.26
2018-08-04T23:54:06.465Z,21.31
2018-08-04T23:57:10.746Z,21.39
